createdAt,value
2019-03-06T00:09:34.007Z,99838.20
2019-03-06T00:12:02.681Z,99837.02
2019-03-06T00:14:31.137Z,99834.37
2019-03-06T00:16:59.582Z,99836.01
2019-03-06T00:19:28.218Z,99835.48
2019-03-06T00:22:16.131Z,99838.48
2019-03-06T00:24:44.641Z,99837.98
2019-03-06T00:27:32.395Z,99834.89
2019-03-06T00:30:00.873Z,99829.75
2019-03-06T00:32:29.338Z,99830.52
2019-03-06T00:37:48.626Z,99825.31
2019-03-06T00:40:36.259Z,99822.19
2019-03-06T00:43:44.658Z,99822.91
2019-03-06T00:49:02.503Z,99815.38
2019-03-06T00:51:31.016Z,99807.80
2019-03-06T00:53:59.465Z,99806.55
2019-03-06T00:57:08.243Z,99812.02
2019-03-06T00:59:36.689Z,99810.73
2019-03-06T01:02:06.861Z,99806.09
2019-03-06T01:04:35.728Z,99803.87
2019-03-06T01:07:04.166Z,99795.94
2019-03-06T01:09:52.081Z,99795.98
2019-03-06T01:12:39.737Z,99795.00
2019-03-06T01:15:48.144Z,99795.75
2019-03-06T01:24:17.710Z,99789.51
2019-03-06T01:26:46.165Z,99781.58
2019-03-06T01:29:33.970Z,99776.30
2019-03-06T01:32:02.730Z,99768.24
2019-03-06T01:34:50.402Z,99767.05
2019-03-06T01:40:48.263Z,99766.63
2019-03-06T01:43:35.899Z,99771.33
2019-03-06T01:46:04.618Z,99769.86
2019-03-06T01:48:52.275Z,99769.76
2019-03-06T01:51:20.849Z,99770.84
2019-03-06T01:54:08.487Z,99774.55
2019-03-06T01:56:56.289Z,99761.23
2019-03-06T01:59:24.743Z,99755.63
2019-03-06T02:02:12.548Z,99746.66
2019-03-06T02:04:41.074Z,99736.39
2019-03-06T02:07:49.522Z,99727.53
2019-03-06T02:16:00.222Z,99717.59
2019-03-06T02:19:08.641Z,99710.85
2019-03-06T02:21:56.406Z,99718.74
2019-03-06T02:24:24.897Z,99716.66
2019-03-06T02:27:12.628Z,99718.50
2019-03-06T02:30:00.542Z,99699.58
2019-03-06T02:32:30.539Z,99706.70
2019-03-06T02:34:58.991Z,99705.13
2019-03-06T02:37:46.678Z,99709.85
2019-03-06T02:40:15.298Z,99716.03
2019-03-06T02:42:43.727Z,99711.80
2019-03-06T02:45:31.551Z,99706.17
2019-03-06T02:48:00.006Z,99700.37
2019-03-06T02:50:28.647Z,99706.38
2019-03-06T02:53:16.460Z,99701.77
2019-03-06T02:55:44.920Z,99696.41
2019-03-06T02:58:32.796Z,99699.02
2019-03-06T03:01:20.374Z,99696.07
2019-03-06T03:04:08.058Z,99695.34
2019-03-06T03:12:19.033Z,99685.94
2019-03-06T03:14:47.520Z,99682.02
2019-03-06T03:17:35.492Z,99676.73
2019-03-06T03:20:44.020Z,99682.36
2019-03-06T03:23:14.458Z,99679.40
2019-03-06T03:26:02.167Z,99680.28
2019-03-06T03:28:30.626Z,99672.15
2019-03-06T03:30:59.125Z,99669.83
2019-03-06T03:33:29.299Z,99666.36
2019-03-06T03:35:57.759Z,99652.02
2019-03-06T03:38:26.214Z,99655.88
2019-03-06T03:40:54.752Z,99652.59
2019-03-06T03:43:23.209Z,99660.34
2019-03-06T03:48:40.969Z,99648.38
2019-03-06T03:51:09.421Z,99633.79
2019-03-06T03:53:37.879Z,99634.69
2019-03-06T03:56:08.102Z,99635.92
2019-03-06T03:58:36.555Z,99637.10
2019-03-06T04:01:44.990Z,99642.11
2019-03-06T04:04:32.780Z,99637.66
2019-03-06T04:09:56.191Z,99634.97
2019-03-06T04:12:24.942Z,99634.24
2019-03-06T04:18:06.375Z,99625.06
2019-03-06T04:23:08.508Z,99629.84
2019-03-06T04:25:37.033Z,99637.69
2019-03-06T04:28:24.992Z,99632.00
2019-03-06T04:30:53.519Z,99630.88
2019-03-06T04:33:21.992Z,99612.11
2019-03-06T04:35:50.510Z,99604.11
2019-03-06T04:38:18.963Z,99605.16
2019-03-06T04:40:47.422Z,99592.98
2019-03-06T04:43:35.338Z,99593.23
2019-03-06T04:46:03.812Z,99595.92
2019-03-06T04:48:32.251Z,99592.55
2019-03-06T04:51:00.747Z,99589.97
2019-03-06T04:53:29.214Z,99588.45
2019-03-06T04:55:57.682Z,99575.33
2019-03-06T05:01:19.584Z,99590.59
2019-03-06T05:03:48.095Z,99586.22
2019-03-06T05:06:37.587Z,99594.17
2019-03-06T05:09:46.065Z,99587.98
2019-03-06T05:12:14.524Z,99581.52
2019-03-06T05:14:43.281Z,99589.84
2019-03-06T05:17:31.079Z,99592.50
2019-03-06T05:19:59.531Z,99586.17
2019-03-06T05:22:27.992Z,99580.48
2019-03-06T05:24:56.498Z,99573.78
2019-03-06T05:27:24.955Z,99565.06
2019-03-06T05:29:53.416Z,99574.91
2019-03-06T05:32:41.347Z,99577.54
2019-03-06T05:35:49.745Z,99581.80
2019-03-06T05:38:58.319Z,99568.48
2019-03-06T05:41:26.783Z,99566.78
2019-03-06T05:46:43.091Z,99550.98
2019-03-06T05:49:13.267Z,99540.20
2019-03-06T05:51:41.724Z,99540.22
2019-03-06T05:56:44.588Z,99533.34
2019-03-06T05:59:13.084Z,99526.02
2019-03-06T06:02:00.741Z,99512.09
2019-03-06T06:04:29.240Z,99507.43
2019-03-06T06:06:57.687Z,99494.92
2019-03-06T06:09:27.871Z,99500.16
2019-03-06T06:11:56.367Z,99487.33
2019-03-06T06:14:24.822Z,99480.92
2019-03-06T06:16:53.289Z,99483.95
2019-03-06T06:22:15.497Z,99492.92
2019-03-06T06:24:44.006Z,99490.98
2019-03-06T06:27:12.468Z,99489.41
2019-03-06T06:29:40.924Z,99492.52
2019-03-06T06:32:09.418Z,99487.64
2019-03-06T06:34:37.877Z,99496.34
2019-03-06T06:37:06.361Z,99484.95
2019-03-06T06:42:27.953Z,99475.96
2019-03-06T06:47:50.308Z,99469.09
2019-03-06T06:50:38.041Z,99471.83
2019-03-06T06:53:45.085Z,99461.63
2019-03-06T06:56:52.197Z,99458.16
2019-03-06T06:59:59.235Z,99452.37
2019-03-06T07:03:25.628Z,99438.31
2019-03-06T07:06:32.531Z,99434.23
2019-03-06T07:09:20.169Z,99432.98
2019-03-06T07:12:07.927Z,99430.63
2019-03-06T07:14:55.553Z,99437.26
2019-03-06T07:23:27.172Z,99436.44
2019-03-06T07:32:17.994Z,99432.06
2019-03-06T07:35:44.185Z,99439.84
2019-03-06T07:41:07.122Z,99422.88
2019-03-06T07:46:44.210Z,99421.59
2019-03-06T07:49:32.051Z,99422.76
2019-03-06T07:52:19.753Z,99427.32
2019-03-06T07:55:07.596Z,99425.55
2019-03-06T07:58:16.082Z,99419.30
2019-03-06T08:01:03.730Z,99412.00
2019-03-06T08:03:51.687Z,99410.83
2019-03-06T08:06:20.224Z,99398.25
2019-03-06T08:08:48.739Z,99406.78
2019-03-06T08:16:51.147Z,99399.89
2019-03-06T08:19:58.142Z,99400.28
2019-03-06T08:22:45.904Z,99396.66
2019-03-06T08:28:22.562Z,99383.42
2019-03-06T08:31:29.470Z,99383.59
2019-03-06T08:34:17.264Z,99383.53
2019-03-06T08:42:26.605Z,99376.92
2019-03-06T08:44:55.193Z,99373.64
2019-03-06T08:50:52.836Z,99373.36
2019-03-06T08:53:40.434Z,99364.15
2019-03-06T08:56:28.212Z,99360.52
2019-03-06T08:59:15.878Z,99350.85
2019-03-06T09:02:22.831Z,99343.25
2019-03-06T09:08:18.917Z,99323.67
2019-03-06T09:11:27.401Z,99324.41
2019-03-06T09:14:36.231Z,99315.14
2019-03-06T09:17:23.954Z,99299.52
2019-03-06T09:20:12.254Z,99291.75
2019-03-06T09:23:00.154Z,99283.83
2019-03-06T09:26:07.032Z,99284.72
2019-03-06T09:29:15.871Z,99279.56
2019-03-06T09:32:03.494Z,99279.91
2019-03-06T09:34:51.069Z,99284.75
2019-03-06T09:37:38.838Z,99275.38
2019-03-06T09:40:47.206Z,99283.63
2019-03-06T09:43:34.966Z,99281.14
2019-03-06T09:46:43.351Z,99272.19
2019-03-06T09:49:31.362Z,99268.50
2019-03-06T09:52:19.205Z,99262.19
2019-03-06T09:55:07.082Z,99252.34
2019-03-06T09:57:54.723Z,99250.31
2019-03-06T10:03:36.866Z,99240.41
2019-03-06T10:06:45.233Z,99234.55
2019-03-06T10:09:59.165Z,99234.20
2019-03-06T10:20:28.298Z,99213.50
2019-03-06T10:23:36.798Z,99212.01
2019-03-06T10:28:58.895Z,99201.57
2019-03-06T10:31:27.380Z,99201.73
2019-03-06T10:34:08.462Z,99180.56
2019-03-06T10:42:38.538Z,99182.06
2019-03-06T10:45:46.904Z,99172.52
2019-03-06T10:48:34.634Z,99174.39
2019-03-06T10:51:22.361Z,99167.50
2019-03-06T10:54:10.176Z,99161.25
2019-03-06T10:56:57.942Z,99155.34
2019-03-06T10:59:45.619Z,99147.88
2019-03-06T11:02:33.434Z,99133.22
2019-03-06T11:08:36.772Z,99127.98
2019-03-06T11:11:45.131Z,99113.05
2019-03-06T11:14:32.870Z,99115.13
2019-03-06T11:17:20.515Z,99103.22
2019-03-06T11:19:50.858Z,99100.59
2019-03-06T11:22:38.518Z,99093.74
2019-03-06T11:25:47.104Z,99095.79
2019-03-06T11:28:55.734Z,99100.94
2019-03-06T11:31:43.535Z,99099.75
2019-03-06T11:34:52.222Z,99102.69
2019-03-06T11:38:00.765Z,99093.06
2019-03-06T11:41:11.210Z,99084.58
2019-03-06T11:43:39.755Z,99084.14
2019-03-06T11:46:48.121Z,99074.77
2019-03-06T11:49:36.067Z,99079.93
2019-03-06T11:52:46.297Z,99075.21
2019-03-06T11:55:54.723Z,99070.30
2019-03-06T11:58:23.326Z,99058.73
2019-03-06T12:01:32.098Z,99046.19
2019-03-06T12:04:20.106Z,99044.25
2019-03-06T12:07:07.933Z,99039.95
2019-03-06T12:09:55.707Z,99036.12
2019-03-06T12:12:43.512Z,99031.09
2019-03-06T12:15:51.889Z,99030.81
2019-03-06T12:19:00.366Z,99020.81
2019-03-06T12:21:48.134Z,99021.97
2019-03-06T12:26:50.323Z,99013.86
2019-03-06T12:29:18.860Z,99007.55
2019-03-06T12:32:06.672Z,98991.55
2019-03-06T12:34:54.441Z,98976.91
2019-03-06T12:37:23.002Z,98970.20
2019-03-06T12:39:51.453Z,98960.77
2019-03-06T12:45:53.509Z,98958.11
2019-03-06T12:50:56.458Z,98951.25
2019-03-06T12:53:25.889Z,98945.45
2019-03-06T12:55:54.434Z,98925.63
2019-03-06T12:58:22.939Z,98917.52
2019-03-06T13:00:51.421Z,98919.98
2019-03-06T13:03:19.882Z,98903.94
2019-03-06T13:05:48.400Z,98901.34
2019-03-06T13:11:10.669Z,98886.81
2019-03-06T13:13:39.162Z,98884.05
2019-03-06T13:19:35.115Z,98885.98
2019-03-06T13:25:51.578Z,98871.91
2019-03-06T13:28:39.244Z,98869.63
2019-03-06T13:31:27.146Z,98861.12
2019-03-06T13:34:16.414Z,98852.41
2019-03-06T13:36:56.942Z,98849.52
2019-03-06T13:39:25.488Z,98850.16
2019-03-06T13:42:14.942Z,98849.11
2019-03-06T13:44:43.478Z,98843.64
2019-03-06T13:49:59.839Z,98844.25
2019-03-06T13:52:28.354Z,98841.93
2019-03-06T13:54:56.822Z,98828.80
2019-03-06T13:57:44.711Z,98818.38
2019-03-06T14:00:34.337Z,98817.53
2019-03-06T14:03:02.948Z,98810.59
2019-03-06T14:05:50.842Z,98819.11
2019-03-06T14:08:21.122Z,98825.75
2019-03-06T14:11:29.494Z,98815.67
2019-03-06T14:16:31.814Z,98814.31
2019-03-06T14:19:00.349Z,98812.34
2019-03-06T14:21:28.945Z,98800.58
2019-03-06T14:23:57.520Z,98796.66
2019-03-06T14:26:45.446Z,98802.11
2019-03-06T14:29:33.626Z,98801.15
2019-03-06T14:32:21.551Z,98794.40
2019-03-06T14:35:09.379Z,98792.09
2019-03-06T14:40:32.223Z,98792.53
2019-03-06T14:43:40.925Z,98787.55
2019-03-06T14:46:51.050Z,98786.23
2019-03-06T14:49:19.709Z,98778.19
2019-03-06T14:57:11.841Z,98769.09
2019-03-06T14:59:40.376Z,98773.12
2019-03-06T15:02:50.493Z,98762.78
2019-03-06T15:05:46.620Z,98760.55
2019-03-06T15:08:27.793Z,98752.44
2019-03-06T15:11:15.575Z,98748.75
2019-03-06T15:14:24.295Z,98742.75
2019-03-06T15:16:52.748Z,98742.09
2019-03-06T15:19:42.215Z,98735.34
2019-03-06T15:22:38.185Z,98730.84
2019-03-06T15:25:19.430Z,98734.86
2019-03-06T15:28:07.205Z,98736.11
2019-03-06T15:30:54.938Z,98746.92
2019-03-06T15:33:44.713Z,98745.89
2019-03-06T15:44:36.141Z,98747.67
2019-03-06T15:50:52.737Z,98755.14
2019-03-06T15:53:24.355Z,98746.11
2019-03-06T15:56:10.776Z,98734.93
2019-03-06T15:58:39.225Z,98739.72
2019-03-06T16:01:07.926Z,98739.46
2019-03-06T16:04:16.618Z,98736.37
2019-03-06T16:07:04.391Z,98730.80
2019-03-06T16:10:12.873Z,98732.30
2019-03-06T16:13:00.759Z,98736.91
2019-03-06T16:16:09.491Z,98739.76
2019-03-06T16:18:57.331Z,98750.45
2019-03-06T16:23:59.978Z,98749.16
2019-03-06T16:26:28.503Z,98749.27
2019-03-06T16:28:56.984Z,98751.31
2019-03-06T16:31:44.755Z,98761.66
2019-03-06T16:34:13.285Z,98753.97
2019-03-06T16:37:00.998Z,98754.08
2019-03-06T16:39:48.906Z,98754.65
2019-03-06T16:42:17.490Z,98755.20
2019-03-06T16:44:45.942Z,98750.29
2019-03-06T16:47:54.357Z,98742.12
2019-03-06T16:51:02.722Z,98746.39
2019-03-06T16:56:44.793Z,98742.81
2019-03-06T16:59:15.289Z,98741.71
2019-03-06T17:01:43.742Z,98742.67
2019-03-06T17:04:12.262Z,98742.03
2019-03-06T17:07:00.077Z,98734.39
2019-03-06T17:10:08.456Z,98733.41
2019-03-06T17:15:51.376Z,98727.69
2019-03-06T17:19:00.018Z,98736.72
2019-03-06T17:21:47.687Z,98728.22
2019-03-06T17:24:16.235Z,98729.81
2019-03-06T17:26:44.738Z,98728.98
2019-03-06T17:29:53.233Z,98730.45
2019-03-06T17:32:22.068Z,98730.56
2019-03-06T17:35:30.478Z,98720.64
2019-03-06T17:38:38.843Z,98721.80
2019-03-06T17:41:49.064Z,98721.00
2019-03-06T17:44:17.583Z,98711.25
2019-03-06T17:46:46.034Z,98721.00
2019-03-06T17:49:14.522Z,98707.34
2019-03-06T17:54:51.063Z,98705.53
2019-03-06T17:57:19.513Z,98700.56
2019-03-06T17:59:48.033Z,98694.59
2019-03-06T18:02:35.795Z,98690.31
2019-03-06T18:05:44.166Z,98690.89
2019-03-06T18:08:12.826Z,98682.80
2019-03-06T18:10:41.781Z,98684.98
2019-03-06T18:13:51.989Z,98673.05
2019-03-06T18:16:39.848Z,98673.34
2019-03-06T18:19:08.372Z,98661.52
2019-03-06T18:27:57.364Z,98631.20
2019-03-06T18:35:59.030Z,98611.03
2019-03-06T18:38:27.403Z,98619.64
2019-03-06T18:40:55.916Z,98623.94
2019-03-06T18:43:43.604Z,98624.89
2019-03-06T18:46:12.053Z,98623.16
2019-03-06T18:51:34.795Z,98606.14
2019-03-06T18:54:03.282Z,98607.22
2019-03-06T18:56:31.733Z,98608.14
2019-03-06T18:59:00.547Z,98607.78
2019-03-06T19:04:22.310Z,98604.36
2019-03-06T19:06:50.805Z,98605.98
2019-03-06T19:09:19.891Z,98604.84
2019-03-06T19:11:49.494Z,98604.44
2019-03-06T19:14:17.987Z,98604.06
2019-03-06T19:17:05.761Z,98597.48
2019-03-06T19:19:34.277Z,98597.48
2019-03-06T19:25:52.455Z,98572.00
2019-03-06T19:28:21.226Z,98572.95
2019-03-06T19:30:49.678Z,98548.21
2019-03-06T19:33:58.098Z,98527.75
2019-03-06T19:36:46.180Z,98535.37
2019-03-06T19:39:16.373Z,98541.25
2019-03-06T19:41:44.828Z,98548.19
2019-03-06T19:44:13.277Z,98546.48
2019-03-06T19:47:00.960Z,98549.92
2019-03-06T19:52:36.262Z,98549.67
2019-03-06T19:55:44.629Z,98545.11
2019-03-06T19:58:53.079Z,98540.08
2019-03-06T20:01:40.718Z,98531.72
2019-03-06T20:06:43.771Z,98533.78
2019-03-06T20:09:33.400Z,98528.38
2019-03-06T20:12:21.067Z,98526.67
2019-03-06T20:14:49.588Z,98523.22
2019-03-06T20:17:20.171Z,98521.03
2019-03-06T20:19:49.263Z,98520.47
2019-03-06T20:28:29.710Z,98514.21
2019-03-06T20:31:17.431Z,98506.69
2019-03-06T20:36:19.722Z,98504.79
2019-03-06T20:41:54.963Z,98507.91
2019-03-06T20:44:23.418Z,98519.04
2019-03-06T20:47:11.164Z,98512.07
2019-03-06T20:49:39.627Z,98511.42
2019-03-06T20:52:08.078Z,98503.08
2019-03-06T20:54:36.881Z,98502.97
2019-03-06T20:57:05.334Z,98497.57
2019-03-06T20:59:33.967Z,98495.96
2019-03-06T21:02:02.798Z,98497.39
2019-03-06T21:04:31.256Z,98487.09
2019-03-06T21:06:59.772Z,98477.11
2019-03-06T21:09:28.677Z,98482.32
2019-03-06T21:11:57.199Z,98485.10
2019-03-06T21:14:25.645Z,98476.15
2019-03-06T21:16:54.358Z,98480.99
2019-03-06T21:19:22.839Z,98481.37
2019-03-06T21:21:51.287Z,98478.98
2019-03-06T21:24:19.780Z,98491.17
2019-03-06T21:26:49.383Z,98485.92
2019-03-06T21:29:17.908Z,98481.53
2019-03-06T21:31:46.896Z,98478.42
2019-03-06T21:34:15.490Z,98495.33
2019-03-06T21:36:44.025Z,98477.45
2019-03-06T21:39:22.784Z,98493.15
2019-03-06T21:41:51.293Z,98503.09
2019-03-06T21:44:19.809Z,98486.02
2019-03-06T21:46:48.397Z,98482.48
2019-03-06T21:49:16.924Z,98495.47
2019-03-06T21:51:45.381Z,98494.86
2019-03-06T21:54:13.933Z,98494.52
2019-03-06T21:56:42.580Z,98481.56
2019-03-06T21:59:11.093Z,98470.55
2019-03-06T22:01:39.755Z,98466.71
2019-03-06T22:04:08.555Z,98470.07
2019-03-06T22:06:37.014Z,98466.28
2019-03-06T22:09:08.660Z,98464.34
2019-03-06T22:11:37.379Z,98450.77
2019-03-06T22:14:05.826Z,98456.17
2019-03-06T22:16:34.376Z,98453.74
2019-03-06T22:19:02.831Z,98449.85
2019-03-06T22:21:31.277Z,98449.89
2019-03-06T22:23:59.844Z,98447.60
2019-03-06T22:26:28.675Z,98449.79
2019-03-06T22:28:57.131Z,98454.70
2019-03-06T22:31:25.808Z,98445.42
2019-03-06T22:33:54.264Z,98452.13
2019-03-06T22:36:22.803Z,98448.91
2019-03-06T22:38:51.299Z,98445.87
2019-03-06T22:41:19.752Z,98436.47
2019-03-06T22:43:48.201Z,98434.43
2019-03-06T22:46:16.939Z,98435.06
2019-03-06T22:48:45.478Z,98435.99
2019-03-06T22:51:14.305Z,98437.20
2019-03-06T22:53:43.260Z,98435.23
2019-03-06T22:56:12.084Z,98427.35
2019-03-06T22:58:40.551Z,98434.25
2019-03-06T23:01:12.605Z,98426.05
2019-03-06T23:03:41.053Z,98419.73
2019-03-06T23:06:09.574Z,98416.33
2019-03-06T23:08:38.133Z,98419.22
2019-03-06T23:11:06.794Z,98412.34
2019-03-06T23:13:35.265Z,98403.14
2019-03-06T23:16:03.996Z,98403.80
2019-03-06T23:18:32.558Z,98401.05
2019-03-06T23:21:01.273Z,98397.17
2019-03-06T23:23:29.946Z,98397.27
2019-03-06T23:25:58.574Z,98401.34
2019-03-06T23:28:27.110Z,98393.17
2019-03-06T23:30:56.353Z,98391.47
2019-03-06T23:33:24.879Z,98375.68
2019-03-06T23:35:53.735Z,98378.94
2019-03-06T23:38:22.615Z,98376.06
2019-03-06T23:40:51.439Z,98362.97
2019-03-06T23:43:20.293Z,98354.34
2019-03-06T23:45:48.787Z,98349.03
2019-03-06T23:48:17.567Z,98343.54
2019-03-06T23:50:46.898Z,98332.16
2019-03-06T23:53:15.386Z,98323.77
2019-03-06T23:55:43.863Z,98322.02
2019-03-06T23:58:12.335Z,98322.73
